Stuyvesant — WNFX — position and weather

sailwx.info

Track history (hours):
 
Tides and Currents Weather Stations Pressure Air Temp Water Temp Dewpoint Dewpoint Depression Visibility Wind Speed Wind Dir Waves Ship Positions

Stuyvesant

More information available from US FCC via Universal Licensing System and Coast Guard Vessel Documentation Center.

Last reported at 2014-Jul-23 15:33 UTC. Time now 2014-Jul-23 16:22 UTC.
Position N 36°58' W 075°60'.

Length 122 m; draft 10.2 m.

Type: Cargo ship. MMSI: 368098000.

Date/timePositionNaut miles runAvg speedWind from/ knotsBaromVisibWave heightAir tempDewpointWater temp
2014-Jul-23 15:33N 36°58' W 075°60'9 8.6
2014-Jul-23 14:31N 36°51' W 075°54'8 7.7
2014-Jul-23 13:30N 36°57' W 075°59'2 2.0
2014-Jul-23 12:33N 36°59' W 076°00'1 1.0
2014-Jul-23 11:29N 36°60' W 076°01'1 1.3
2014-Jul-23 10:33N 36°59' W 076°00'7 6.7
2014-Jul-23 09:33N 36°53' W 075°55'4 3.9
2014-Jul-23 08:33N 36°56' W 075°58'3 3.2
2014-Jul-23 07:30N 36°59' W 076°00'1 0.8
2014-Jul-23 06:33N 36°60' W 076°01'1 1.2
2014-Jul-23 05:31N 36°59' W 076°00'6 4.7
2014-Jul-23 04:20N 36°54' W 075°56'2 2.1
2014-Jul-23 03:10N 36°56' W 075°58'4 6.0
2014-Jul-23 02:28N 36°60' W 076°01'1 1.0
2014-Jul-23 01:21N 36°59' W 076°00'0 0.3
2014-Jul-23 00:16N 36°59' W 076°00'1 1.3
2014-Jul-22 23:30N 36°60' W 076°01'11 9.4
2014-Jul-22 22:18N 36°50' W 075°53'810.2
2014-Jul-22 21:29N 36°57' W 075°59'3 1.3
2014-Jul-22 19:22N 36°59' W 076°01'11 4.9
2014-Jul-22 17:09N 36°50' W 075°53'11 6.7
2014-Jul-22 15:27N 36°60' W 076°01'1 0.9
2014-Jul-22 14:26N 36°59' W 076°00'1 0.9
2014-Jul-22 13:28N 36°58' W 075°60'7 7.5
2014-Jul-22 12:33N 36°53' W 075°55'3 3.4
2014-Jul-22 11:33N 36°56' W 075°57'4 3.3
2014-Jul-22 10:25N 36°59' W 075°60'1 1.6
2014-Jul-22 09:34N 36°60' W 076°01'1 1.0
2014-Jul-22 08:27N 36°59' W 076°00'5 5.5
2014-Jul-22 07:33N 36°55' W 075°56'6 2.9
2014-Jul-22 05:32N 36°59' W 076°01'0 0.3
2014-Jul-22 04:34N 36°60' W 076°01'1 0.9
2014-Jul-22 03:32N 36°59' W 076°00'4 3.7
2014-Jul-22 02:33N 36°56' W 075°58'1 0.9
2014-Jul-22 01:22N 36°55' W 075°57'5 6.0
2014-Jul-22 00:32N 36°59' W 076°00'1 1.1
2014-Jul-21 23:33N 36°58' W 075°60'1 1.0
2014-Jul-21 22:33N 36°59' W 076°00'1 1.1
2014-Jul-21 21:31N 36°60' W 076°01'1110.8
2014-Jul-21 20:31N 36°51' W 075°53'2 3.8
2014-Jul-21 20:07N 36°52' W 075°54'611.2
2014-Jul-21 19:33N 36°57' W 075°59'2 1.5
2014-Jul-21 18:25N 36°59' W 076°00'1 1.3
2014-Jul-21 17:29N 36°60' W 076°01'1 1.3
2014-Jul-21 16:31N 36°59' W 076°00'9 1.3
2014-Jul-21 09:33N 36°51' W 075°54'6 5.9
2014-Jul-21 08:33N 36°56' W 075°58'4 3.7
2014-Jul-21 07:33N 36°59' W 076°00'1 0.9
2014-Jul-21 06:33N 36°60' W 076°01'1 1.3
2014-Jul-21 05:33N 36°59' W 076°00'1 1.1
2014-Jul-21 04:30N 36°58' W 075°60'8 8.2
2014-Jul-21 03:29N 36°51' W 075°53'9 9.1
2014-Jul-21 02:31N 36°58' W 075°60'1 1.3
2014-Jul-21 01:33N 36°59' W 076°00'0 0.2
2014-Jul-21 00:23N 36°59' W 076°01'1 1.2
2014-Jul-20 23:33N 36°59' W 075°60'10 9.2
2014-Jul-20 22:30N 36°51' W 075°53'8 8.4
2014-Jul-20 21:31N 36°57' W 075°59'2 2.0
2014-Jul-20 20:29N 36°59' W 076°00'1 1.0
2014-Jul-20 19:33N 36°60' W 076°01'2 1.5
2014-Jul-20 18:33N 36°59' W 076°00'10 8.7
2014-Jul-20 17:26N 36°51' W 075°53'8 8.0
2014-Jul-20 16:28N 36°57' W 075°59'4 3.6
2014-Jul-20 15:28N 36°60' W 076°01'2 1.0
2014-Jul-20 13:31N 36°58' W 075°60'9 9.5
2014-Jul-20 12:32N 36°50' W 075°53'9 8.1
2014-Jul-20 11:29N 36°57' W 075°59'1 1.4
2014-Jul-20 10:27N 36°59' W 076°00'1 0.7
2014-Jul-20 09:33N 36°58' W 075°60'1 1.2
2014-Jul-20 08:32N 36°59' W 076°00'1 0.6
2014-Jul-20 07:33N 36°59' W 076°00'10 9.9
2014-Jul-20 06:32N 36°50' W 075°53'10 9.7
2014-Jul-20 05:33N 36°58' W 075°60'1 0.9
2014-Jul-20 04:33N 36°59' W 076°00'1 0.8
2014-Jul-20 03:31N 36°60' W 076°01'1 1.0
2014-Jul-20 02:33N 36°59' W 076°00'2 2.0
2014-Jul-20 01:33N 36°57' W 075°59'8 8.0
2014-Jul-20 00:33N 36°51' W 075°54'8 7.7
2014-Jul-19 23:31N 36°57' W 075°59'2 1.6
2014-Jul-19 22:32N 36°59' W 076°00'1 1.1
2014-Jul-19 21:29N 36°60' W 076°01'1 0.7
2014-Jul-19 20:33N 36°59' W 076°00'7 7.1
2014-Jul-19 19:33N 36°53' W 075°55'1 1.1
2014-Jul-19 18:33N 36°54' W 075°56'7 6.6
2014-Jul-19 17:34N 36°60' W 076°01'0 0.3
2014-Jul-19 16:33N 36°59' W 076°01'1 0.9
2014-Jul-19 15:28N 36°59' W 075°60'3 3.3
2014-Jul-19 14:32N 36°56' W 075°58'3 3.1
2014-Jul-19 13:25N 36°54' W 075°55'7 8.1
2014-Jul-19 12:33N 36°59' W 076°00'1 0.6
2014-Jul-19 11:31N 36°59' W 075°60'0 0.2
2014-Jul-19 10:14N 36°59' W 076°00'1 1.2
2014-Jul-19 09:33N 36°59' W 076°01'5 4.0
2014-Jul-19 08:23N 36°56' W 075°57'2 1.7
2014-Jul-19 07:21N 36°54' W 075°56'6 3.4
2014-Jul-19 05:34N 36°59' W 076°00'0 0.3
2014-Jul-19 04:28N 36°59' W 076°00'3 3.2
2014-Jul-19 03:25N 36°56' W 075°58'9 4.1
2014-Jul-19 01:05N 36°59' W 076°10'711.4
2014-Jul-19 00:29N 36°60' W 076°18'3 3.3
2014-Jul-18 23:30N 36°57' W 076°21'0 0.0
2014-Jul-18 22:30N 36°57' W 076°21'0 0.1
2014-Jul-18 21:18N 36°57' W 076°21'0 0.0
2014-Jul-18 12:30N 36°57' W 076°21'17 3.3
2014-Jul-18 07:28N 36°58' W 075°60'1 1.2
2014-Jul-18 06:31N 36°59' W 076°00'1 1.4
2014-Jul-18 05:30N 37°00' W 076°01'10 8.8
2014-Jul-18 04:21N 36°52' W 075°54'4 4.6
2014-Jul-18 03:33N 36°55' W 075°57'5 5.0
2014-Jul-18 02:33N 36°59' W 076°00'0 0.1
2014-Jul-18 01:33N 36°59' W 076°00'1 0.9
2014-Jul-18 00:33N 36°58' W 075°60'9 8.6
2014-Jul-17 23:32N 36°51' W 075°53'6 4.9
2014-Jul-17 22:20N 36°56' W 075°58'3 4.2
2014-Jul-17 21:31N 36°59' W 076°00'0 0.2
2014-Jul-17 20:32N 36°59' W 075°60'1 1.2
2014-Jul-17 19:24N 36°60' W 076°01'2 1.8
2014-Jul-17 18:33N 36°58' W 075°60'8 8.3
2014-Jul-17 17:33N 36°52' W 075°54'9 8.6
2014-Jul-17 16:33N 36°59' W 075°60'1 1.0
2014-Jul-17 15:33N 36°60' W 076°01'0 0.3
2014-Jul-17 14:33N 36°59' W 076°00'1 1.2
2014-Jul-17 13:33N 36°58' W 075°60'7 6.4
2014-Jul-17 12:32N 36°53' W 075°55'3 3.4
2014-Jul-17 11:33N 36°56' W 075°57'4 3.5
2014-Jul-17 10:33N 36°59' W 076°00'1 0.8
2014-Jul-17 09:32N 36°59' W 076°01'1 1.1
2014-Jul-17 08:32N 36°58' W 075°60'8 7.9
2014-Jul-17 07:32N 36°52' W 075°54'5 5.5
2014-Jul-17 06:33N 36°56' W 075°58'3 2.8
2014-Jul-17 05:33N 36°59' W 076°00'1 1.0
2014-Jul-17 04:32N 36°60' W 076°01'0 0.5
2014-Jul-17 03:31N 36°59' W 076°01'5 4.6
2014-Jul-17 02:28N 36°55' W 075°57'4 4.0
2014-Jul-17 01:33N 36°52' W 075°54'9 8.7
2014-Jul-17 00:32N 36°60' W 076°01'1 0.9
2014-Jul-16 23:29N 36°59' W 076°00'1 0.7
2014-Jul-16 22:25N 36°58' W 075°60'0 0.1
2014-Jul-16 20:20N 36°58' W 075°60'9 4.4
2014-Jul-16 18:20N 36°51' W 075°53'7 9.2
2014-Jul-16 17:32N 36°57' W 075°59'4 3.8
2014-Jul-16 16:33N 36°60' W 076°01'1 1.2
2014-Jul-16 15:33N 36°59' W 076°00'4 3.6
2014-Jul-16 14:30N 36°56' W 075°57'0 0.1
2014-Jul-16 13:16N 36°56' W 075°57'3 4.9
2014-Jul-16 12:33N 36°59' W 076°00'1 1.4
2014-Jul-16 11:33N 36°60' W 076°01'1 0.7
2014-Jul-16 10:33N 36°59' W 076°00'1 1.2
2014-Jul-16 09:33N 36°58' W 075°60'9 9.1
2014-Jul-16 08:33N 36°51' W 075°53'9 8.8
2014-Jul-16 07:32N 36°58' W 075°60'1 0.9
2014-Jul-16 06:33N 36°59' W 076°00'1 0.9
2014-Jul-16 05:30N 36°60' W 076°01'4 4.3
2014-Jul-16 04:33N 36°56' W 075°58'2 1.7
2014-Jul-16 03:24N 36°55' W 075°57'6 6.9
2014-Jul-16 02:33N 36°59' W 076°01'0 0.1
2014-Jul-16 01:33N 36°59' W 076°01'1 1.0
2014-Jul-16 00:31N 36°59' W 076°00'1 1.0
2014-Jul-15 23:33N 36°58' W 075°59'8 8.0
2014-Jul-15 22:30N 36°51' W 075°53'1010.3
2014-Jul-15 21:33N 36°59' W 076°00'1 0.7
2014-Jul-15 20:33N 36°60' W 076°01'1 0.7
2014-Jul-15 19:32N 36°59' W 076°00'1 0.8
2014-Jul-15 18:33N 36°58' W 075°60'9 9.3
2014-Jul-15 17:32N 36°50' W 075°53'10 9.8
2014-Jul-15 16:32N 36°59' W 075°60'0 0.4
2014-Jul-15 15:22N 36°58' W 075°60'1 1.0
2014-Jul-15 14:31N 36°59' W 076°00'10 5.0
2014-Jul-15 12:30N 36°51' W 075°53'9 9.3
2014-Jul-15 11:33N 36°58' W 075°60'2 1.6
2014-Jul-15 10:29N 36°59' W 076°01'0 0.4
2014-Jul-15 09:30N 36°60' W 076°01'9 4.2
2014-Jul-15 07:26N 36°52' W 075°54'4 4.9
2014-Jul-15 06:33N 36°56' W 075°58'3 3.4
2014-Jul-15 05:32N 36°59' W 076°00'1 0.8
2014-Jul-15 04:22N 36°59' W 076°01'0 0.6
2014-Jul-15 03:33N 36°60' W 076°01'1110.6
2014-Jul-15 02:30N 36°51' W 075°53'11 9.5
2014-Jul-15 01:21N 36°60' W 076°01'0 0.1
2014-Jul-15 00:30N 36°60' W 076°01'1 0.9
2014-Jul-14 23:33N 36°59' W 076°00'1 0.5
2014-Jul-14 22:30N 36°58' W 075°60'1 0.9
2014-Jul-14 21:29N 36°58' W 076°00'4 4.8
2014-Jul-14 20:33N 36°54' W 075°56'2 2.2
2014-Jul-14 19:32N 36°53' W 075°55'8 8.4
2014-Jul-14 18:33N 36°59' W 076°01'1 0.8
2014-Jul-14 17:33N 36°59' W 076°00'0 0.2
2014-Jul-14 16:30N 36°59' W 076°00'1 0.7
2014-Jul-14 15:33N 36°59' W 076°01'2 2.4
2014-Jul-14 14:33N 36°57' W 075°59'4 2.9
2014-Jul-14 13:15N 36°55' W 075°56'5 6.8
2014-Jul-14 12:31N 36°58' W 075°60'1 1.1
2014-Jul-14 11:33N 36°59' W 076°01'0 0.4
2014-Jul-14 10:33N 36°60' W 076°01'1 1.3
2014-Jul-14 09:29N 36°58' W 076°00'6 6.4
2014-Jul-14 08:32N 36°54' W 075°56'3 2.8
2014-Jul-14 07:32N 36°56' W 075°58'3 2.2
2014-Jul-14 06:21N 36°58' W 075°60'1 1.2
2014-Jul-14 05:32N 36°59' W 076°00'1 0.9
2014-Jul-14 04:33N 36°60' W 076°01'7 7.0
2014-Jul-14 03:31N 36°54' W 075°56'1 1.4
2014-Jul-14 02:32N 36°55' W 075°57'5 4.6
2014-Jul-14 01:32N 36°59' W 076°00'1 1.1
2014-Jul-14 00:29N 36°59' W 076°01'0 0.1
2014-Jul-13 23:32N 36°59' W 076°01'2 1.5
2014-Jul-13 22:33N 36°58' W 075°60'9 9.4
2014-Jul-13 21:34N 36°50' W 075°53'9 9.3
2014-Jul-13 20:33N 36°58' W 075°60'2 1.5
2014-Jul-13 19:30N 36°60' W 076°01'0 0.1
2014-Jul-13 18:33N 36°60' W 076°01'0 0.2
2014-Jul-13 17:33N 36°59' W 076°01'2 1.5
2014-Jul-13 16:30N 36°58' W 075°60'9 9.1
2014-Jul-13 15:33N 36°51' W 075°53'  
Track history (hours):
 
Tides and Currents Weather Stations Pressure Air Temp Water Temp Dewpoint Dewpoint Depression Visibility Wind Speed Wind Dir Waves Ship Positions

Stuyvesant

More information available from US FCC via Universal Licensing System and Coast Guard Vessel Documentation Center.

Last reported at 2014-Jul-23 15:33 UTC. Time now 2014-Jul-23 16:22 UTC.
Position N 36°58' W 075°60'.

Length 122 m; draft 10.2 m.

Type: Cargo ship. MMSI: 368098000.

Date/timePositionNaut miles runAvg speedWind from/ knotsBaromVisibWave heightAir tempDewpointWater temp
2014-Jul-23 15:33N 36°58' W 075°60'9 8.6
2014-Jul-23 14:31N 36°51' W 075°54'8 7.7
2014-Jul-23 13:30N 36°57' W 075°59'2 2.0
2014-Jul-23 12:33N 36°59' W 076°00'1 1.0
2014-Jul-23 11:29N 36°60' W 076°01'1 1.3
2014-Jul-23 10:33N 36°59' W 076°00'7 6.7
2014-Jul-23 09:33N 36°53' W 075°55'4 3.9
2014-Jul-23 08:33N 36°56' W 075°58'3 3.2
2014-Jul-23 07:30N 36°59' W 076°00'1 0.8
2014-Jul-23 06:33N 36°60' W 076°01'1 1.2
2014-Jul-23 05:31N 36°59' W 076°00'6 4.7
2014-Jul-23 04:20N 36°54' W 075°56'2 2.1
2014-Jul-23 03:10N 36°56' W 075°58'4 6.0
2014-Jul-23 02:28N 36°60' W 076°01'1 1.0
2014-Jul-23 01:21N 36°59' W 076°00'0 0.3
2014-Jul-23 00:16N 36°59' W 076°00'1 1.3
2014-Jul-22 23:30N 36°60' W 076°01'11 9.4
2014-Jul-22 22:18N 36°50' W 075°53'810.2
2014-Jul-22 21:29N 36°57' W 075°59'3 1.3
2014-Jul-22 19:22N 36°59' W 076°01'11 4.9
2014-Jul-22 17:09N 36°50' W 075°53'11 6.7
2014-Jul-22 15:27N 36°60' W 076°01'1 0.9
2014-Jul-22 14:26N 36°59' W 076°00'1 0.9
2014-Jul-22 13:28N 36°58' W 075°60'7 7.5
2014-Jul-22 12:33N 36°53' W 075°55'3 3.4
2014-Jul-22 11:33N 36°56' W 075°57'4 3.3
2014-Jul-22 10:25N 36°59' W 075°60'1 1.6
2014-Jul-22 09:34N 36°60' W 076°01'1 1.0
2014-Jul-22 08:27N 36°59' W 076°00'5 5.5
2014-Jul-22 07:33N 36°55' W 075°56'6 2.9
2014-Jul-22 05:32N 36°59' W 076°01'0 0.3
2014-Jul-22 04:34N 36°60' W 076°01'1 0.9
2014-Jul-22 03:32N 36°59' W 076°00'4 3.7
2014-Jul-22 02:33N 36°56' W 075°58'1 0.9
2014-Jul-22 01:22N 36°55' W 075°57'5 6.0
2014-Jul-22 00:32N 36°59' W 076°00'1 1.1
2014-Jul-21 23:33N 36°58' W 075°60'1 1.0
2014-Jul-21 22:33N 36°59' W 076°00'1 1.1
2014-Jul-21 21:31N 36°60' W 076°01'1110.8
2014-Jul-21 20:31N 36°51' W 075°53'2 3.8
2014-Jul-21 20:07N 36°52' W 075°54'611.2
2014-Jul-21 19:33N 36°57' W 075°59'2 1.5
2014-Jul-21 18:25N 36°59' W 076°00'1 1.3
2014-Jul-21 17:29N 36°60' W 076°01'1 1.3
2014-Jul-21 16:31N 36°59' W 076°00'9 1.3
2014-Jul-21 09:33N 36°51' W 075°54'6 5.9
2014-Jul-21 08:33N 36°56' W 075°58'4 3.7
2014-Jul-21 07:33N 36°59' W 076°00'1 0.9
2014-Jul-21 06:33N 36°60' W 076°01'1 1.3
2014-Jul-21 05:33N 36°59' W 076°00'1 1.1
2014-Jul-21 04:30N 36°58' W 075°60'8 8.2
2014-Jul-21 03:29N 36°51' W 075°53'9 9.1
2014-Jul-21 02:31N 36°58' W 075°60'1 1.3
2014-Jul-21 01:33N 36°59' W 076°00'0 0.2
2014-Jul-21 00:23N 36°59' W 076°01'1 1.2
2014-Jul-20 23:33N 36°59' W 075°60'10 9.2
2014-Jul-20 22:30N 36°51' W 075°53'8 8.4
2014-Jul-20 21:31N 36°57' W 075°59'2 2.0
2014-Jul-20 20:29N 36°59' W 076°00'1 1.0
2014-Jul-20 19:33N 36°60' W 076°01'2 1.5
2014-Jul-20 18:33N 36°59' W 076°00'10 8.7
2014-Jul-20 17:26N 36°51' W 075°53'8 8.0
2014-Jul-20 16:28N 36°57' W 075°59'4 3.6
2014-Jul-20 15:28N 36°60' W 076°01'2 1.0
2014-Jul-20 13:31N 36°58' W 075°60'9 9.5
2014-Jul-20 12:32N 36°50' W 075°53'9 8.1
2014-Jul-20 11:29N 36°57' W 075°59'1 1.4
2014-Jul-20 10:27N 36°59' W 076°00'1 0.7
2014-Jul-20 09:33N 36°58' W 075°60'1 1.2
2014-Jul-20 08:32N 36°59' W 076°00'1 0.6
2014-Jul-20 07:33N 36°59' W 076°00'10 9.9
2014-Jul-20 06:32N 36°50' W 075°53'10 9.7
2014-Jul-20 05:33N 36°58' W 075°60'1 0.9
2014-Jul-20 04:33N 36°59' W 076°00'1 0.8
2014-Jul-20 03:31N 36°60' W 076°01'1 1.0
2014-Jul-20 02:33N 36°59' W 076°00'2 2.0
2014-Jul-20 01:33N 36°57' W 075°59'8 8.0
2014-Jul-20 00:33N 36°51' W 075°54'8 7.7
2014-Jul-19 23:31N 36°57' W 075°59'2 1.6
2014-Jul-19 22:32N 36°59' W 076°00'1 1.1
2014-Jul-19 21:29N 36°60' W 076°01'1 0.7
2014-Jul-19 20:33N 36°59' W 076°00'7 7.1
2014-Jul-19 19:33N 36°53' W 075°55'1 1.1
2014-Jul-19 18:33N 36°54' W 075°56'7 6.6
2014-Jul-19 17:34N 36°60' W 076°01'0 0.3
2014-Jul-19 16:33N 36°59' W 076°01'1 0.9
2014-Jul-19 15:28N 36°59' W 075°60'3 3.3
2014-Jul-19 14:32N 36°56' W 075°58'3 3.1
2014-Jul-19 13:25N 36°54' W 075°55'7 8.1
2014-Jul-19 12:33N 36°59' W 076°00'1 0.6
2014-Jul-19 11:31N 36°59' W 075°60'0 0.2
2014-Jul-19 10:14N 36°59' W 076°00'1 1.2
2014-Jul-19 09:33N 36°59' W 076°01'5 4.0
2014-Jul-19 08:23N 36°56' W 075°57'2 1.7
2014-Jul-19 07:21N 36°54' W 075°56'6 3.4
2014-Jul-19 05:34N 36°59' W 076°00'0 0.3
2014-Jul-19 04:28N 36°59' W 076°00'3 3.2
2014-Jul-19 03:25N 36°56' W 075°58'9 4.1
2014-Jul-19 01:05N 36°59' W 076°10'711.4
2014-Jul-19 00:29N 36°60' W 076°18'3 3.3
2014-Jul-18 23:30N 36°57' W 076°21'0 0.0
2014-Jul-18 22:30N 36°57' W 076°21'0 0.1
2014-Jul-18 21:18N 36°57' W 076°21'0 0.0
2014-Jul-18 12:30N 36°57' W 076°21'17 3.3
2014-Jul-18 07:28N 36°58' W 075°60'1 1.2
2014-Jul-18 06:31N 36°59' W 076°00'1 1.4
2014-Jul-18 05:30N 37°00' W 076°01'10 8.8
2014-Jul-18 04:21N 36°52' W 075°54'4 4.6
2014-Jul-18 03:33N 36°55' W 075°57'5 5.0
2014-Jul-18 02:33N 36°59' W 076°00'0 0.1
2014-Jul-18 01:33N 36°59' W 076°00'1 0.9
2014-Jul-18 00:33N 36°58' W 075°60'9 8.6
2014-Jul-17 23:32N 36°51' W 075°53'6 4.9
2014-Jul-17 22:20N 36°56' W 075°58'3 4.2
2014-Jul-17 21:31N 36°59' W 076°00'0 0.2
2014-Jul-17 20:32N 36°59' W 075°60'1 1.2
2014-Jul-17 19:24N 36°60' W 076°01'2 1.8
2014-Jul-17 18:33N 36°58' W 075°60'8 8.3
2014-Jul-17 17:33N 36°52' W 075°54'9 8.6
2014-Jul-17 16:33N 36°59' W 075°60'1 1.0
2014-Jul-17 15:33N 36°60' W 076°01'0 0.3
2014-Jul-17 14:33N 36°59' W 076°00'1 1.2
2014-Jul-17 13:33N 36°58' W 075°60'7 6.4
2014-Jul-17 12:32N 36°53' W 075°55'3 3.4
2014-Jul-17 11:33N 36°56' W 075°57'4 3.5
2014-Jul-17 10:33N 36°59' W 076°00'1 0.8
2014-Jul-17 09:32N 36°59' W 076°01'1 1.1
2014-Jul-17 08:32N 36°58' W 075°60'8 7.9
2014-Jul-17 07:32N 36°52' W 075°54'5 5.5
2014-Jul-17 06:33N 36°56' W 075°58'3 2.8
2014-Jul-17 05:33N 36°59' W 076°00'1 1.0
2014-Jul-17 04:32N 36°60' W 076°01'0 0.5
2014-Jul-17 03:31N 36°59' W 076°01'5 4.6
2014-Jul-17 02:28N 36°55' W 075°57'4 4.0
2014-Jul-17 01:33N 36°52' W 075°54'9 8.7
2014-Jul-17 00:32N 36°60' W 076°01'1 0.9
2014-Jul-16 23:29N 36°59' W 076°00'1 0.7
2014-Jul-16 22:25N 36°58' W 075°60'0 0.1
2014-Jul-16 20:20N 36°58' W 075°60'9 4.4
2014-Jul-16 18:20N 36°51' W 075°53'7 9.2
2014-Jul-16 17:32N 36°57' W 075°59'4 3.8
2014-Jul-16 16:33N 36°60' W 076°01'1 1.2
2014-Jul-16 15:33N 36°59' W 076°00'4 3.6
2014-Jul-16 14:30N 36°56' W 075°57'0 0.1
2014-Jul-16 13:16N 36°56' W 075°57'3 4.9
2014-Jul-16 12:33N 36°59' W 076°00'1 1.4
2014-Jul-16 11:33N 36°60' W 076°01'1 0.7
2014-Jul-16 10:33N 36°59' W 076°00'1 1.2
2014-Jul-16 09:33N 36°58' W 075°60'9 9.1
2014-Jul-16 08:33N 36°51' W 075°53'9 8.8
2014-Jul-16 07:32N 36°58' W 075°60'1 0.9
2014-Jul-16 06:33N 36°59' W 076°00'1 0.9
2014-Jul-16 05:30N 36°60' W 076°01'4 4.3
2014-Jul-16 04:33N 36°56' W 075°58'2 1.7
2014-Jul-16 03:24N 36°55' W 075°57'6 6.9
2014-Jul-16 02:33N 36°59' W 076°01'0 0.1
2014-Jul-16 01:33N 36°59' W 076°01'1 1.0
2014-Jul-16 00:31N 36°59' W 076°00'1 1.0
2014-Jul-15 23:33N 36°58' W 075°59'8 8.0
2014-Jul-15 22:30N 36°51' W 075°53'1010.3
2014-Jul-15 21:33N 36°59' W 076°00'1 0.7
2014-Jul-15 20:33N 36°60' W 076°01'1 0.7
2014-Jul-15 19:32N 36°59' W 076°00'1 0.8
2014-Jul-15 18:33N 36°58' W 075°60'9 9.3
2014-Jul-15 17:32N 36°50' W 075°53'10 9.8
2014-Jul-15 16:32N 36°59' W 075°60'0 0.4
2014-Jul-15 15:22N 36°58' W 075°60'1 1.0
2014-Jul-15 14:31N 36°59' W 076°00'10 5.0
2014-Jul-15 12:30N 36°51' W 075°53'9 9.3
2014-Jul-15 11:33N 36°58' W 075°60'2 1.6
2014-Jul-15 10:29N 36°59' W 076°01'0 0.4
2014-Jul-15 09:30N 36°60' W 076°01'9 4.2
2014-Jul-15 07:26N 36°52' W 075°54'4 4.9
2014-Jul-15 06:33N 36°56' W 075°58'3 3.4
2014-Jul-15 05:32N 36°59' W 076°00'1 0.8
2014-Jul-15 04:22N 36°59' W 076°01'0 0.6
2014-Jul-15 03:33N 36°60' W 076°01'1110.6
2014-Jul-15 02:30N 36°51' W 075°53'11 9.5
2014-Jul-15 01:21N 36°60' W 076°01'0 0.1
2014-Jul-15 00:30N 36°60' W 076°01'1 0.9
2014-Jul-14 23:33N 36°59' W 076°00'1 0.5
2014-Jul-14 22:30N 36°58' W 075°60'1 0.9
2014-Jul-14 21:29N 36°58' W 076°00'4 4.8
2014-Jul-14 20:33N 36°54' W 075°56'2 2.2
2014-Jul-14 19:32N 36°53' W 075°55'8 8.4
2014-Jul-14 18:33N 36°59' W 076°01'1 0.8
2014-Jul-14 17:33N 36°59' W 076°00'0 0.2
2014-Jul-14 16:30N 36°59' W 076°00'1 0.7
2014-Jul-14 15:33N 36°59' W 076°01'2 2.4
2014-Jul-14 14:33N 36°57' W 075°59'4 2.9
2014-Jul-14 13:15N 36°55' W 075°56'5 6.8
2014-Jul-14 12:31N 36°58' W 075°60'1 1.1
2014-Jul-14 11:33N 36°59' W 076°01'0 0.4
2014-Jul-14 10:33N 36°60' W 076°01'1 1.3
2014-Jul-14 09:29N 36°58' W 076°00'6 6.4
2014-Jul-14 08:32N 36°54' W 075°56'3 2.8
2014-Jul-14 07:32N 36°56' W 075°58'3 2.2
2014-Jul-14 06:21N 36°58' W 075°60'1 1.2
2014-Jul-14 05:32N 36°59' W 076°00'1 0.9
2014-Jul-14 04:33N 36°60' W 076°01'7 7.0
2014-Jul-14 03:31N 36°54' W 075°56'1 1.4
2014-Jul-14 02:32N 36°55' W 075°57'5 4.6
2014-Jul-14 01:32N 36°59' W 076°00'1 1.1
2014-Jul-14 00:29N 36°59' W 076°01'0 0.1
2014-Jul-13 23:32N 36°59' W 076°01'2 1.5
2014-Jul-13 22:33N 36°58' W 075°60'9 9.4
2014-Jul-13 21:34N 36°50' W 075°53'9 9.3
2014-Jul-13 20:33N 36°58' W 075°60'2 1.5
2014-Jul-13 19:30N 36°60' W 076°01'0 0.1
2014-Jul-13 18:33N 36°60' W 076°01'0 0.2
2014-Jul-13 17:33N 36°59' W 076°01'2 1.5
2014-Jul-13 16:30N 36°58' W 075°60'9 9.1
2014-Jul-13 15:33N 36°51' W 075°53'  

Dump ship's entire track history